sensor_id;sensor_type;location;lat;lon;timestamp;P1;durP1;ratioP1;P2;durP2;ratioP2
73893;SDS011;62699;50.534;12.784;2024-03-25T00:04:29;4.53;;;2.72;;
73893;SDS011;62699;50.534;12.784;2024-03-25T00:09:30;6.60;;;3.35;;
73893;SDS011;62699;50.534;12.784;2024-03-25T00:14:30;5.47;;;2.92;;
73893;SDS011;62699;50.534;12.784;2024-03-25T00:19:30;5.90;;;2.78;;
73893;SDS011;62699;50.534;12.784;2024-03-25T00:24:32;5.47;;;2.90;;
73893;SDS011;62699;50.534;12.784;2024-03-25T00:29:32;6.93;;;3.30;;
73893;SDS011;62699;50.534;12.784;2024-03-25T00:34:32;5.30;;;2.90;;
73893;SDS011;62699;50.534;12.784;2024-03-25T00:39:33;6.32;;;3.10;;
73893;SDS011;62699;50.534;12.784;2024-03-25T00:44:34;5.93;;;3.15;;
73893;SDS011;62699;50.534;12.784;2024-03-25T00:49:35;4.60;;;2.47;;
73893;SDS011;62699;50.534;12.784;2024-03-25T00:54:35;6.40;;;3.15;;
73893;SDS011;62699;50.534;12.784;2024-03-25T00:59:35;6.25;;;2.92;;
73893;SDS011;62699;50.534;12.784;2024-03-25T01:04:35;4.90;;;2.55;;
73893;SDS011;62699;50.534;12.784;2024-03-25T01:09:36;5.53;;;2.83;;
73893;SDS011;62699;50.534;12.784;2024-03-25T01:14:36;6.07;;;2.50;;
73893;SDS011;62699;50.534;12.784;2024-03-25T01:19:36;7.07;;;3.00;;
73893;SDS011;62699;50.534;12.784;2024-03-25T01:24:36;3.88;;;2.30;;
73893;SDS011;62699;50.534;12.784;2024-03-25T01:29:37;4.10;;;2.35;;
73893;SDS011;62699;50.534;12.784;2024-03-25T01:34:37;3.95;;;2.47;;
73893;SDS011;62699;50.534;12.784;2024-03-25T01:39:37;5.47;;;2.65;;
73893;SDS011;62699;50.534;12.784;2024-03-25T01:44:38;4.80;;;2.40;;
73893;SDS011;62699;50.534;12.784;2024-03-25T01:49:39;4.00;;;2.10;;
73893;SDS011;62699;50.534;12.784;2024-03-25T01:54:39;3.72;;;2.38;;
73893;SDS011;62699;50.534;12.784;2024-03-25T01:59:39;5.07;;;2.40;;
73893;SDS011;62699;50.534;12.784;2024-03-25T02:04:40;7.07;;;2.67;;
73893;SDS011;62699;50.534;12.784;2024-03-25T02:09:41;5.95;;;2.72;;
73893;SDS011;62699;50.534;12.784;2024-03-25T02:14:42;5.30;;;2.70;;
73893;SDS011;62699;50.534;12.784;2024-03-25T02:19:43;5.25;;;2.70;;
73893;SDS011;62699;50.534;12.784;2024-03-25T02:24:44;3.45;;;2.13;;
73893;SDS011;62699;50.534;12.784;2024-03-25T02:29:45;3.08;;;2.20;;
73893;SDS011;62699;50.534;12.784;2024-03-25T02:34:50;2.90;;;2.33;;
73893;SDS011;62699;50.534;12.784;2024-03-25T02:39:52;4.30;;;2.42;;
73893;SDS011;62699;50.534;12.784;2024-03-25T02:44:55;4.18;;;2.15;;
73893;SDS011;62699;50.534;12.784;2024-03-25T02:49:56;8.20;;;2.53;;
73893;SDS011;62699;50.534;12.784;2024-03-25T02:54:56;4.95;;;2.72;;
73893;SDS011;62699;50.534;12.784;2024-03-25T02:59:56;4.28;;;2.30;;
73893;SDS011;62699;50.534;12.784;2024-03-25T03:04:57;4.22;;;2.60;;
73893;SDS011;62699;50.534;12.784;2024-03-25T03:09:57;5.25;;;2.90;;
73893;SDS011;62699;50.534;12.784;2024-03-25T03:14:57;7.43;;;2.65;;
73893;SDS011;62699;50.534;12.784;2024-03-25T03:19:57;6.22;;;2.60;;
73893;SDS011;62699;50.534;12.784;2024-03-25T03:24:58;8.55;;;3.00;;
73893;SDS011;62699;50.534;12.784;2024-03-25T03:29:58;6.22;;;2.78;;
73893;SDS011;62699;50.534;12.784;2024-03-25T03:34:58;6.38;;;2.75;;
73893;SDS011;62699;50.534;12.784;2024-03-25T03:39:58;5.43;;;2.65;;
73893;SDS011;62699;50.534;12.784;2024-03-25T03:44:58;4.47;;;2.40;;
73893;SDS011;62699;50.534;12.784;2024-03-25T03:49:59;4.30;;;2.25;;
73893;SDS011;62699;50.534;12.784;2024-03-25T03:54:59;3.38;;;2.13;;
73893;SDS011;62699;50.534;12.784;2024-03-25T03:59:59;3.08;;;2.30;;
73893;SDS011;62699;50.534;12.784;2024-03-25T04:05:00;6.05;;;2.30;;
73893;SDS011;62699;50.534;12.784;2024-03-25T04:10:00;4.75;;;2.83;;
73893;SDS011;62699;50.534;12.784;2024-03-25T04:15:00;2.70;;;2.10;;
73893;SDS011;62699;50.534;12.784;2024-03-25T04:20:01;3.47;;;2.30;;
73893;SDS011;62699;50.534;12.784;2024-03-25T04:25:02;2.95;;;2.47;;
73893;SDS011;62699;50.534;12.784;2024-03-25T04:30:02;5.25;;;2.55;;
73893;SDS011;62699;50.534;12.784;2024-03-25T04:35:02;5.25;;;2.17;;
73893;SDS011;62699;50.534;12.784;2024-03-25T04:40:03;5.53;;;2.70;;
73893;SDS011;62699;50.534;12.784;2024-03-25T04:45:04;4.07;;;2.38;;
73893;SDS011;62699;50.534;12.784;2024-03-25T04:50:05;6.63;;;3.40;;
73893;SDS011;62699;50.534;12.784;2024-03-25T04:55:06;6.78;;;3.40;;
73893;SDS011;62699;50.534;12.784;2024-03-25T05:00:06;4.57;;;2.65;;
73893;SDS011;62699;50.534;12.784;2024-03-25T05:05:10;6.35;;;2.63;;
73893;SDS011;62699;50.534;12.784;2024-03-25T05:10:11;4.50;;;2.13;;
73893;SDS011;62699;50.534;12.784;2024-03-25T05:15:11;3.95;;;2.20;;
73893;SDS011;62699;50.534;12.784;2024-03-25T05:20:11;5.15;;;2.53;;
73893;SDS011;62699;50.534;12.784;2024-03-25T05:25:11;5.32;;;2.63;;
73893;SDS011;62699;50.534;12.784;2024-03-25T05:30:12;9.07;;;4.10;;
73893;SDS011;62699;50.534;12.784;2024-03-25T05:35:12;13.07;;;6.25;;
73893;SDS011;62699;50.534;12.784;2024-03-25T05:40:12;17.90;;;8.80;;
73893;SDS011;62699;50.534;12.784;2024-03-25T05:45:13;9.35;;;4.20;;
73893;SDS011;62699;50.534;12.784;2024-03-25T05:50:13;9.27;;;4.03;;
73893;SDS011;62699;50.534;12.784;2024-03-25T05:55:13;5.20;;;2.65;;
73893;SDS011;62699;50.534;12.784;2024-03-25T06:00:14;7.20;;;3.60;;
73893;SDS011;62699;50.534;12.784;2024-03-25T06:05:14;8.18;;;3.92;;
73893;SDS011;62699;50.534;12.784;2024-03-25T06:10:14;8.32;;;4.10;;
73893;SDS011;62699;50.534;12.784;2024-03-25T06:15:15;5.70;;;2.88;;
73893;SDS011;62699;50.534;12.784;2024-03-25T06:20:15;6.30;;;3.25;;
73893;SDS011;62699;50.534;12.784;2024-03-25T06:25:15;20.67;;;9.90;;
73893;SDS011;62699;50.534;12.784;2024-03-25T06:30:15;8.23;;;3.65;;
73893;SDS011;62699;50.534;12.784;2024-03-25T06:35:34;7.00;;;3.00;;
73893;SDS011;62699;50.534;12.784;2024-03-25T06:40:35;5.75;;;3.33;;
73893;SDS011;62699;50.534;12.784;2024-03-25T06:45:35;7.47;;;3.35;;
73893;SDS011;62699;50.534;12.784;2024-03-25T06:50:35;8.75;;;4.63;;
73893;SDS011;62699;50.534;12.784;2024-03-25T06:55:36;6.72;;;3.80;;
73893;SDS011;62699;50.534;12.784;2024-03-25T07:00:37;6.97;;;2.60;;
73893;SDS011;62699;50.534;12.784;2024-03-25T07:05:37;7.72;;;3.10;;
73893;SDS011;62699;50.534;12.784;2024-03-25T07:10:37;8.15;;;3.05;;
73893;SDS011;62699;50.534;12.784;2024-03-25T07:15:38;7.60;;;3.33;;
73893;SDS011;62699;50.534;12.784;2024-03-25T07:20:39;8.23;;;2.60;;
73893;SDS011;62699;50.534;12.784;2024-03-25T07:25:39;7.40;;;3.47;;
73893;SDS011;62699;50.534;12.784;2024-03-25T07:30:40;6.18;;;3.15;;
73893;SDS011;62699;50.534;12.784;2024-03-25T07:35:40;7.40;;;3.47;;
73893;SDS011;62699;50.534;12.784;2024-03-25T07:40:41;6.55;;;3.15;;
73893;SDS011;62699;50.534;12.784;2024-03-25T07:45:41;5.05;;;2.60;;
73893;SDS011;62699;50.534;12.784;2024-03-25T07:50:41;10.68;;;5.30;;
73893;SDS011;62699;50.534;12.784;2024-03-25T07:55:42;11.80;;;4.07;;
73893;SDS011;62699;50.534;12.784;2024-03-25T08:00:42;17.23;;;10.30;;
73893;SDS011;62699;50.534;12.784;2024-03-25T08:05:42;8.13;;;4.13;;
73893;SDS011;62699;50.534;12.784;2024-03-25T08:10:43;9.77;;;3.97;;
73893;SDS011;62699;50.534;12.784;2024-03-25T08:15:43;9.18;;;4.55;;
73893;SDS011;62699;50.534;12.784;2024-03-25T08:20:43;8.38;;;3.22;;
73893;SDS011;62699;50.534;12.784;2024-03-25T08:25:44;9.88;;;3.10;;
73893;SDS011;62699;50.534;12.784;2024-03-25T08:30:44;6.00;;;2.95;;
73893;SDS011;62699;50.534;12.784;2024-03-25T08:35:44;6.03;;;2.92;;
73893;SDS011;62699;50.534;12.784;2024-03-25T08:40:47;3.90;;;2.40;;
73893;SDS011;62699;50.534;12.784;2024-03-25T08:45:47;5.15;;;2.70;;
73893;SDS011;62699;50.534;12.784;2024-03-25T08:50:47;4.90;;;2.50;;
73893;SDS011;62699;50.534;12.784;2024-03-25T08:55:48;5.28;;;2.65;;
73893;SDS011;62699;50.534;12.784;2024-03-25T09:00:48;5.13;;;2.72;;
73893;SDS011;62699;50.534;12.784;2024-03-25T09:05:48;8.48;;;3.00;;
73893;SDS011;62699;50.534;12.784;2024-03-25T09:10:49;7.22;;;2.60;;
73893;SDS011;62699;50.534;12.784;2024-03-25T09:16:07;4.75;;;2.45;;
73893;SDS011;62699;50.534;12.784;2024-03-25T09:21:07;4.44;;;1.90;;
73893;SDS011;62699;50.534;12.784;2024-03-25T09:26:07;5.50;;;2.40;;
73893;SDS011;62699;50.534;12.784;2024-03-25T09:31:07;5.95;;;2.90;;
73893;SDS011;62699;50.534;12.784;2024-03-25T09:36:08;4.95;;;2.85;;
73893;SDS011;62699;50.534;12.784;2024-03-25T09:41:08;4.93;;;2.85;;
73893;SDS011;62699;50.534;12.784;2024-03-25T09:46:09;5.03;;;2.40;;
73893;SDS011;62699;50.534;12.784;2024-03-25T09:51:10;4.75;;;2.13;;
73893;SDS011;62699;50.534;12.784;2024-03-25T09:56:10;4.00;;;2.10;;
73893;SDS011;62699;50.534;12.784;2024-03-25T10:01:11;9.07;;;3.90;;
73893;SDS011;62699;50.534;12.784;2024-03-25T10:06:11;8.15;;;3.80;;
73893;SDS011;62699;50.534;12.784;2024-03-25T10:11:13;2.70;;;2.08;;
73893;SDS011;62699;50.534;12.784;2024-03-25T10:16:15;12.93;;;8.63;;
73893;SDS011;62699;50.534;12.784;2024-03-25T10:21:18;12.05;;;9.52;;
73893;SDS011;62699;50.534;12.784;2024-03-25T10:26:29;3.13;;;1.90;;
73893;SDS011;62699;50.534;12.784;2024-03-25T10:31:31;4.43;;;1.75;;
73893;SDS011;62699;50.534;12.784;2024-03-25T10:36:32;3.83;;;2.10;;
73893;SDS011;62699;50.534;12.784;2024-03-25T10:41:33;4.53;;;1.90;;
73893;SDS011;62699;50.534;12.784;2024-03-25T10:46:34;4.30;;;2.00;;
73893;SDS011;62699;50.534;12.784;2024-03-25T10:51:35;13.32;;;6.63;;
73893;SDS011;62699;50.534;12.784;2024-03-25T10:56:38;2.63;;;2.00;;
73893;SDS011;62699;50.534;12.784;2024-03-25T11:01:38;2.15;;;1.50;;
73893;SDS011;62699;50.534;12.784;2024-03-25T11:06:39;2.40;;;1.65;;
73893;SDS011;62699;50.534;12.784;2024-03-25T11:11:39;3.95;;;2.20;;
73893;SDS011;62699;50.534;12.784;2024-03-25T11:16:39;2.00;;;1.40;;
73893;SDS011;62699;50.534;12.784;2024-03-25T11:21:40;1.85;;;1.50;;
73893;SDS011;62699;50.534;12.784;2024-03-25T11:26:40;2.05;;;1.30;;
73893;SDS011;62699;50.534;12.784;2024-03-25T11:31:42;4.90;;;1.95;;
73893;SDS011;62699;50.534;12.784;2024-03-25T11:36:43;2.75;;;1.60;;
73893;SDS011;62699;50.534;12.784;2024-03-25T11:41:43;1.60;;;1.40;;
73893;SDS011;62699;50.534;12.784;2024-03-25T11:46:44;3.15;;;1.45;;
73893;SDS011;62699;50.534;12.784;2024-03-25T11:51:45;1.33;;;1.23;;
73893;SDS011;62699;50.534;12.784;2024-03-25T11:56:46;2.17;;;1.27;;
73893;SDS011;62699;50.534;12.784;2024-03-25T12:01:47;2.17;;;1.30;;
73893;SDS011;62699;50.534;12.784;2024-03-25T12:06:48;1.27;;;1.17;;
73893;SDS011;62699;50.534;12.784;2024-03-25T12:11:48;1.40;;;1.10;;
73893;SDS011;62699;50.534;12.784;2024-03-25T12:16:49;2.35;;;1.20;;
73893;SDS011;62699;50.534;12.784;2024-03-25T12:21:50;2.90;;;1.30;;
73893;SDS011;62699;50.534;12.784;2024-03-25T12:26:58;2.88;;;1.63;;
73893;SDS011;62699;50.534;12.784;2024-03-25T12:31:59;2.00;;;1.33;;
73893;SDS011;62699;50.534;12.784;2024-03-25T12:37:02;2.80;;;1.50;;
73893;SDS011;62699;50.534;12.784;2024-03-25T12:42:06;3.13;;;1.52;;
73893;SDS011;62699;50.534;12.784;2024-03-25T12:47:06;3.65;;;1.60;;
73893;SDS011;62699;50.534;12.784;2024-03-25T12:52:07;4.35;;;1.98;;
73893;SDS011;62699;50.534;12.784;2024-03-25T12:57:07;5.82;;;2.50;;
73893;SDS011;62699;50.534;12.784;2024-03-25T13:02:08;4.80;;;2.10;;
73893;SDS011;62699;50.534;12.784;2024-03-25T13:07:10;11.38;;;5.05;;
73893;SDS011;62699;50.534;12.784;2024-03-25T13:12:11;6.70;;;2.88;;
73893;SDS011;62699;50.534;12.784;2024-03-25T13:17:11;6.22;;;2.85;;
73893;SDS011;62699;50.534;12.784;2024-03-25T13:22:12;12.32;;;8.05;;
73893;SDS011;62699;50.534;12.784;2024-03-25T13:27:12;19.98;;;11.95;;
73893;SDS011;62699;50.534;12.784;2024-03-25T13:32:13;6.57;;;2.65;;
73893;SDS011;62699;50.534;12.784;2024-03-25T13:37:13;5.15;;;2.13;;
73893;SDS011;62699;50.534;12.784;2024-03-25T13:42:13;5.53;;;2.05;;
73893;SDS011;62699;50.534;12.784;2024-03-25T13:47:14;6.57;;;2.38;;
73893;SDS011;62699;50.534;12.784;2024-03-25T13:52:14;5.22;;;2.17;;
73893;SDS011;62699;50.534;12.784;2024-03-25T13:57:14;5.40;;;3.20;;
73893;SDS011;62699;50.534;12.784;2024-03-25T14:02:14;7.13;;;2.50;;
73893;SDS011;62699;50.534;12.784;2024-03-25T14:07:15;4.55;;;2.00;;
73893;SDS011;62699;50.534;12.784;2024-03-25T14:12:15;3.03;;;1.73;;
73893;SDS011;62699;50.534;12.784;2024-03-25T14:17:16;5.57;;;2.42;;
73893;SDS011;62699;50.534;12.784;2024-03-25T14:22:17;5.00;;;2.20;;
73893;SDS011;62699;50.534;12.784;2024-03-25T14:27:17;5.30;;;2.00;;
73893;SDS011;62699;50.534;12.784;2024-03-25T14:32:21;1.75;;;1.65;;
73893;SDS011;62699;50.534;12.784;2024-03-25T14:37:22;3.47;;;1.70;;
73893;SDS011;62699;50.534;12.784;2024-03-25T14:42:22;5.18;;;2.17;;
73893;SDS011;62699;50.534;12.784;2024-03-25T14:47:22;10.35;;;4.88;;
73893;SDS011;62699;50.534;12.784;2024-03-25T14:52:23;5.35;;;2.38;;
73893;SDS011;62699;50.534;12.784;2024-03-25T14:57:23;3.85;;;1.70;;
73893;SDS011;62699;50.534;12.784;2024-03-25T15:02:24;5.57;;;2.38;;
73893;SDS011;62699;50.534;12.784;2024-03-25T15:07:25;3.95;;;2.40;;
73893;SDS011;62699;50.534;12.784;2024-03-25T15:12:26;4.53;;;1.90;;
73893;SDS011;62699;50.534;12.784;2024-03-25T15:17:27;4.53;;;2.17;;
73893;SDS011;62699;50.534;12.784;2024-03-25T15:22:27;5.40;;;2.40;;
73893;SDS011;62699;50.534;12.784;2024-03-25T15:27:27;3.85;;;2.00;;
73893;SDS011;62699;50.534;12.784;2024-03-25T15:32:27;4.32;;;2.00;;
73893;SDS011;62699;50.534;12.784;2024-03-25T15:37:28;7.13;;;3.03;;
73893;SDS011;62699;50.534;12.784;2024-03-25T15:42:28;5.60;;;2.30;;
73893;SDS011;62699;50.534;12.784;2024-03-25T15:47:28;3.75;;;2.47;;
73893;SDS011;62699;50.534;12.784;2024-03-25T15:52:29;4.03;;;2.28;;
73893;SDS011;62699;50.534;12.784;2024-03-25T15:57:29;7.78;;;3.72;;
73893;SDS011;62699;50.534;12.784;2024-03-25T16:02:29;5.55;;;3.03;;
73893;SDS011;62699;50.534;12.784;2024-03-25T16:07:30;2.88;;;2.10;;
73893;SDS011;62699;50.534;12.784;2024-03-25T16:12:30;8.90;;;4.25;;
73893;SDS011;62699;50.534;12.784;2024-03-25T16:17:31;5.75;;;3.15;;
73893;SDS011;62699;50.534;12.784;2024-03-25T16:22:32;6.20;;;3.25;;
73893;SDS011;62699;50.534;12.784;2024-03-25T16:27:33;9.10;;;4.63;;
73893;SDS011;62699;50.534;12.784;2024-03-25T16:32:33;8.30;;;4.65;;
73893;SDS011;62699;50.534;12.784;2024-03-25T16:37:34;3.35;;;1.98;;
73893;SDS011;62699;50.534;12.784;2024-03-25T16:42:35;5.45;;;2.55;;
73893;SDS011;62699;50.534;12.784;2024-03-25T16:47:35;4.05;;;1.85;;
73893;SDS011;62699;50.534;12.784;2024-03-25T16:52:35;2.58;;;1.88;;
73893;SDS011;62699;50.534;12.784;2024-03-25T16:57:36;4.30;;;2.00;;
73893;SDS011;62699;50.534;12.784;2024-03-25T17:02:36;3.55;;;1.98;;
73893;SDS011;62699;50.534;12.784;2024-03-25T17:07:36;2.90;;;1.80;;
73893;SDS011;62699;50.534;12.784;2024-03-25T17:12:36;2.92;;;1.98;;
73893;SDS011;62699;50.534;12.784;2024-03-25T17:17:38;7.63;;;2.95;;
73893;SDS011;62699;50.534;12.784;2024-03-25T17:22:38;10.70;;;4.60;;
73893;SDS011;62699;50.534;12.784;2024-03-25T17:27:38;14.77;;;6.18;;
73893;SDS011;62699;50.534;12.784;2024-03-25T17:32:39;44.63;;;18.73;;
73893;SDS011;62699;50.534;12.784;2024-03-25T17:37:39;44.60;;;17.73;;
73893;SDS011;62699;50.534;12.784;2024-03-25T17:42:39;20.05;;;9.30;;
73893;SDS011;62699;50.534;12.784;2024-03-25T17:47:40;9.70;;;4.68;;
73893;SDS011;62699;50.534;12.784;2024-03-25T17:52:40;8.68;;;3.70;;
73893;SDS011;62699;50.534;12.784;2024-03-25T17:57:41;9.45;;;4.20;;
73893;SDS011;62699;50.534;12.784;2024-03-25T18:02:41;11.68;;;5.65;;
73893;SDS011;62699;50.534;12.784;2024-03-25T18:07:41;11.15;;;5.50;;
73893;SDS011;62699;50.534;12.784;2024-03-25T18:12:43;13.20;;;5.25;;
73893;SDS011;62699;50.534;12.784;2024-03-25T18:17:43;16.40;;;6.60;;
73893;SDS011;62699;50.534;12.784;2024-03-25T18:22:44;15.00;;;5.88;;
73893;SDS011;62699;50.534;12.784;2024-03-25T18:27:44;12.43;;;4.55;;
73893;SDS011;62699;50.534;12.784;2024-03-25T18:32:44;8.85;;;4.50;;
73893;SDS011;62699;50.534;12.784;2024-03-25T18:37:46;9.88;;;3.88;;
73893;SDS011;62699;50.534;12.784;2024-03-25T18:42:46;13.08;;;6.32;;
73893;SDS011;62699;50.534;12.784;2024-03-25T18:47:47;13.98;;;6.22;;
73893;SDS011;62699;50.534;12.784;2024-03-25T18:52:47;16.15;;;7.20;;
73893;SDS011;62699;50.534;12.784;2024-03-25T18:57:47;9.88;;;4.63;;
73893;SDS011;62699;50.534;12.784;2024-03-25T19:02:47;8.73;;;4.53;;
73893;SDS011;62699;50.534;12.784;2024-03-25T19:07:47;10.27;;;4.13;;
73893;SDS011;62699;50.534;12.784;2024-03-25T19:12:48;10.70;;;4.10;;
73893;SDS011;62699;50.534;12.784;2024-03-25T19:17:48;8.43;;;3.30;;
73893;SDS011;62699;50.534;12.784;2024-03-25T19:22:48;7.63;;;3.53;;
73893;SDS011;62699;50.534;12.784;2024-03-25T19:27:50;6.45;;;3.30;;
73893;SDS011;62699;50.534;12.784;2024-03-25T19:32:50;14.85;;;7.15;;
73893;SDS011;62699;50.534;12.784;2024-03-25T19:37:50;8.25;;;3.60;;
73893;SDS011;62699;50.534;12.784;2024-03-25T19:42:50;9.62;;;5.18;;
73893;SDS011;62699;50.534;12.784;2024-03-25T19:47:51;15.18;;;8.00;;
73893;SDS011;62699;50.534;12.784;2024-03-25T19:52:51;15.23;;;9.48;;
73893;SDS011;62699;50.534;12.784;2024-03-25T19:57:51;22.98;;;9.02;;
73893;SDS011;62699;50.534;12.784;2024-03-25T20:02:51;16.15;;;8.60;;
73893;SDS011;62699;50.534;12.784;2024-03-25T20:07:53;13.93;;;6.50;;
73893;SDS011;62699;50.534;12.784;2024-03-25T20:12:53;11.48;;;4.90;;
73893;SDS011;62699;50.534;12.784;2024-03-25T20:17:53;12.85;;;4.78;;
73893;SDS011;62699;50.534;12.784;2024-03-25T20:22:54;10.02;;;5.05;;
73893;SDS011;62699;50.534;12.784;2024-03-25T20:27:54;9.38;;;5.20;;
73893;SDS011;62699;50.534;12.784;2024-03-25T20:32:55;11.55;;;5.00;;
73893;SDS011;62699;50.534;12.784;2024-03-25T20:37:55;7.32;;;4.35;;
73893;SDS011;62699;50.534;12.784;2024-03-25T20:42:55;10.82;;;5.45;;
73893;SDS011;62699;50.534;12.784;2024-03-25T20:47:55;8.88;;;5.00;;
73893;SDS011;62699;50.534;12.784;2024-03-25T20:52:56;9.23;;;4.50;;
73893;SDS011;62699;50.534;12.784;2024-03-25T20:57:56;8.15;;;4.15;;
73893;SDS011;62699;50.534;12.784;2024-03-25T21:02:56;7.65;;;4.10;;
73893;SDS011;62699;50.534;12.784;2024-03-25T21:07:56;10.85;;;4.00;;
73893;SDS011;62699;50.534;12.784;2024-03-25T21:12:57;9.93;;;4.03;;
73893;SDS011;62699;50.534;12.784;2024-03-25T21:17:57;7.22;;;3.25;;
73893;SDS011;62699;50.534;12.784;2024-03-25T21:22:57;8.20;;;3.92;;
73893;SDS011;62699;50.534;12.784;2024-03-25T21:27:58;8.32;;;3.40;;
73893;SDS011;62699;50.534;12.784;2024-03-25T21:32:58;6.50;;;3.80;;
73893;SDS011;62699;50.534;12.784;2024-03-25T21:37:58;7.82;;;4.75;;
73893;SDS011;62699;50.534;12.784;2024-03-25T21:42:59;8.98;;;5.22;;
73893;SDS011;62699;50.534;12.784;2024-03-25T21:47:59;9.25;;;4.90;;
73893;SDS011;62699;50.534;12.784;2024-03-25T21:52:59;9.27;;;4.60;;
73893;SDS011;62699;50.534;12.784;2024-03-25T21:58:01;8.57;;;4.55;;
73893;SDS011;62699;50.534;12.784;2024-03-25T22:03:01;9.30;;;4.47;;
73893;SDS011;62699;50.534;12.784;2024-03-25T22:08:02;9.70;;;4.15;;
73893;SDS011;62699;50.534;12.784;2024-03-25T22:13:02;9.95;;;4.35;;
73893;SDS011;62699;50.534;12.784;2024-03-25T22:18:04;9.07;;;3.85;;
73893;SDS011;62699;50.534;12.784;2024-03-25T22:23:04;8.43;;;3.90;;
73893;SDS011;62699;50.534;12.784;2024-03-25T22:28:04;8.95;;;4.88;;
73893;SDS011;62699;50.534;12.784;2024-03-25T22:33:05;8.32;;;4.32;;
73893;SDS011;62699;50.534;12.784;2024-03-25T22:38:06;7.63;;;4.43;;
73893;SDS011;62699;50.534;12.784;2024-03-25T22:43:06;7.15;;;4.47;;
73893;SDS011;62699;50.534;12.784;2024-03-25T22:48:07;9.15;;;4.60;;
73893;SDS011;62699;50.534;12.784;2024-03-25T22:53:07;8.38;;;4.15;;
73893;SDS011;62699;50.534;12.784;2024-03-25T22:58:07;14.23;;;4.32;;
73893;SDS011;62699;50.534;12.784;2024-03-25T23:03:07;10.30;;;4.68;;
73893;SDS011;62699;50.534;12.784;2024-03-25T23:08:08;8.30;;;4.50;;
73893;SDS011;62699;50.534;12.784;2024-03-25T23:13:08;10.18;;;4.40;;
73893;SDS011;62699;50.534;12.784;2024-03-25T23:18:08;10.45;;;4.90;;
73893;SDS011;62699;50.534;12.784;2024-03-25T23:23:09;8.40;;;4.30;;
73893;SDS011;62699;50.534;12.784;2024-03-25T23:28:13;7.28;;;3.95;;
73893;SDS011;62699;50.534;12.784;2024-03-25T23:33:14;8.35;;;4.50;;
73893;SDS011;62699;50.534;12.784;2024-03-25T23:38:14;10.85;;;4.65;;
73893;SDS011;62699;50.534;12.784;2024-03-25T23:43:15;7.63;;;4.30;;
73893;SDS011;62699;50.534;12.784;2024-03-25T23:48:15;9.60;;;4.07;;
73893;SDS011;62699;50.534;12.784;2024-03-25T23:53:15;6.05;;;3.40;;
73893;SDS011;62699;50.534;12.784;2024-03-25T23:58:15;11.65;;;4.72;;
